首页
METAR-TAF:

METAR-TAF

机场 :

迈林根, 瑞士

纬度: 46-44-25N, 经度: 8-06-36E, 海拔: 577米

当前天气观测

该预报发布于32分钟前的13:20 UTC
风速5节,风向多变
温度 18°C
湿度 64%
气压 1016 hPa
能见度10公里或以上
散云层高于8700英尺
多云层高于10000英尺

METAR: LSMM 251320Z AUTO VRB05KT 9999NDV SCT087 BKN100 18/11 Q1016 RMK

时间: 15:52 (13:52 UTC)


TAF: 丢失

超过4000个机场的气象观测和天气预报(METAR&TAF报告)。

可查询的气象台以黄色和红色小点在地图上表示。

将鼠标移到小点上方,可查看气象台名称。

然后点击查看天气观测和预报。

如需切换地图:点击带黑十字的绿色按钮放大地图;点击带横线的绿色按钮缩小地图;或者点击绿色箭头查看邻近地区的地图。


METAR-TAF: